createdAt,value
2023-05-07T00:00:02.803Z,8.91
2023-05-07T00:02:35.069Z,8.90
2023-05-07T00:05:07.753Z,8.85
2023-05-07T00:07:39.525Z,8.82
2023-05-07T00:10:13.687Z,8.77
2023-05-07T00:12:45.753Z,8.74
2023-05-07T00:15:17.801Z,8.68
2023-05-07T00:17:49.567Z,8.64
2023-05-07T00:20:21.269Z,8.63
2023-05-07T00:22:52.888Z,8.59
2023-05-07T00:25:24.591Z,8.53
2023-05-07T00:27:56.308Z,8.49
2023-05-07T00:30:28.184Z,8.47
2023-05-07T00:32:59.905Z,8.43
2023-05-07T00:35:31.871Z,8.40
2023-05-07T00:38:03.534Z,8.39
2023-05-07T00:40:36.117Z,8.38
2023-05-07T00:43:08.009Z,8.37
2023-05-07T00:45:39.706Z,8.35
2023-05-07T00:48:11.354Z,8.35
2023-05-07T00:50:43.063Z,8.39
2023-05-07T00:53:14.698Z,8.41
2023-05-07T00:55:46.257Z,8.40
2023-05-07T00:58:18.345Z,8.40
2023-05-07T01:00:50.034Z,8.42
2023-05-07T01:03:22.550Z,8.42
2023-05-07T01:05:54.785Z,8.39
2023-05-07T01:08:28.691Z,8.34
2023-05-07T01:11:00.343Z,8.33
2023-05-07T01:13:32.372Z,8.33
2023-05-07T01:16:04.856Z,8.32
2023-05-07T01:18:36.904Z,8.30
2023-05-07T01:21:08.649Z,8.31
2023-05-07T01:23:40.915Z,8.32
2023-05-07T01:26:13.032Z,8.35
2023-05-07T01:28:46.387Z,8.37
2023-05-07T01:31:18.585Z,8.35
2023-05-07T01:33:50.391Z,8.37
2023-05-07T01:36:22.289Z,8.36
2023-05-07T01:38:54.010Z,8.39
2023-05-07T01:41:26.204Z,8.36
2023-05-07T01:43:58.746Z,8.34
2023-05-07T01:46:30.679Z,8.35
2023-05-07T01:49:02.290Z,8.36
2023-05-07T01:51:34.050Z,8.36
2023-05-07T01:54:06.404Z,8.38
2023-05-07T01:56:38.159Z,8.38
2023-05-07T01:59:10.127Z,8.37
2023-05-07T02:01:42.094Z,8.37
2023-05-07T02:04:14.965Z,8.38
2023-05-07T02:06:47.152Z,8.39
2023-05-07T02:09:19.812Z,8.40
2023-05-07T02:11:53.352Z,8.40
2023-05-07T02:14:27.278Z,8.38
2023-05-07T02:16:58.851Z,8.38
2023-05-07T02:19:30.473Z,8.38
2023-05-07T02:22:02.128Z,8.40
2023-05-07T02:24:35.848Z,8.41
2023-05-07T02:27:07.503Z,8.43
2023-05-07T02:29:39.075Z,8.44
2023-05-07T02:32:16.686Z,8.46
2023-05-07T02:34:48.238Z,8.47
2023-05-07T02:37:19.928Z,8.48
2023-05-07T02:39:51.492Z,8.51
2023-05-07T02:42:23.194Z,8.49
2023-05-07T02:44:54.715Z,8.51
2023-05-07T02:47:28.511Z,8.49
2023-05-07T02:50:00.474Z,8.50
2023-05-07T02:52:32.161Z,8.51
2023-05-07T02:55:03.727Z,8.52
2023-05-07T02:57:35.857Z,8.53
2023-05-07T03:00:18.974Z,8.53
2023-05-07T03:02:52.541Z,8.51
2023-05-07T03:05:24.311Z,8.49
2023-05-07T03:07:56.094Z,8.50
2023-05-07T03:10:27.753Z,8.51
2023-05-07T03:12:59.723Z,8.56
2023-05-07T03:15:32.779Z,8.60
2023-05-07T03:18:05.008Z,8.60
2023-05-07T03:20:37.834Z,8.59
2023-05-07T03:23:09.496Z,8.58
2023-05-07T03:25:41.259Z,8.61
2023-05-07T03:28:12.968Z,8.63
2023-05-07T03:30:49.351Z,8.63
2023-05-07T03:33:21.293Z,8.59
2023-05-07T03:35:53.331Z,8.58
2023-05-07T03:38:27.085Z,8.53
2023-05-07T03:40:58.897Z,8.49
2023-05-07T03:43:31.664Z,8.41
2023-05-07T03:46:05.857Z,8.38
2023-05-07T03:48:37.546Z,8.41
2023-05-07T03:51:09.464Z,8.44
2023-05-07T03:53:41.590Z,8.47
2023-05-07T03:56:13.321Z,8.47
2023-05-07T03:58:45.348Z,8.48
2023-05-07T04:01:17.033Z,8.44
2023-05-07T04:03:49.180Z,8.43
2023-05-07T04:06:21.962Z,8.42
2023-05-07T04:08:53.893Z,8.40
2023-05-07T04:11:26.231Z,8.31
2023-05-07T04:13:58.320Z,8.27
2023-05-07T04:16:30.032Z,8.27
2023-05-07T04:19:02.545Z,8.28
2023-05-07T04:21:34.850Z,8.28
2023-05-07T04:24:06.808Z,8.26
2023-05-07T04:26:38.903Z,8.24
2023-05-07T04:29:10.594Z,8.25
2023-05-07T04:31:43.898Z,8.24
2023-05-07T04:34:15.656Z,8.21
2023-05-07T04:36:47.273Z,8.20
2023-05-07T04:39:18.947Z,8.19
2023-05-07T04:41:51.295Z,8.20
2023-05-07T04:44:22.873Z,8.20
2023-05-07T04:46:54.518Z,8.22
2023-05-07T04:49:26.178Z,8.21
2023-05-07T04:51:58.203Z,8.19
2023-05-07T04:54:29.870Z,8.19
2023-05-07T04:57:01.524Z,8.22
2023-05-07T04:59:34.072Z,8.25
2023-05-07T05:02:05.899Z,8.28
2023-05-07T05:04:38.488Z,8.29
2023-05-07T05:07:10.366Z,8.32
2023-05-07T05:09:41.998Z,8.35
2023-05-07T05:12:13.626Z,8.37
2023-05-07T05:14:45.999Z,8.34
2023-05-07T05:17:19.350Z,8.32
2023-05-07T05:19:51.979Z,8.33
2023-05-07T05:22:25.275Z,8.33
2023-05-07T05:24:56.981Z,8.35
2023-05-07T05:27:28.731Z,8.40
2023-05-07T05:30:00.499Z,8.43
2023-05-07T05:32:32.838Z,8.45
2023-05-07T05:35:06.931Z,8.50
2023-05-07T05:37:39.155Z,8.59
2023-05-07T05:40:12.077Z,8.67
2023-05-07T05:42:44.518Z,8.73
2023-05-07T05:45:16.714Z,8.85
2023-05-07T05:47:49.517Z,8.95
2023-05-07T05:50:21.189Z,9.05
2023-05-07T05:52:52.847Z,9.12
2023-05-07T05:55:25.720Z,9.16
2023-05-07T05:57:57.762Z,9.17
2023-05-07T06:00:30.483Z,9.20
2023-05-07T06:03:04.216Z,9.21
2023-05-07T06:05:36.126Z,9.23
2023-05-07T06:08:08.345Z,9.22
2023-05-07T06:10:40.475Z,9.20
2023-05-07T06:13:12.671Z,9.26
2023-05-07T06:15:45.202Z,9.31
2023-05-07T06:18:17.123Z,9.34
2023-05-07T06:20:49.035Z,9.37
2023-05-07T06:23:23.009Z,9.46
2023-05-07T06:25:54.854Z,9.52
2023-05-07T06:28:28.836Z,9.56
2023-05-07T06:31:03.831Z,9.58
2023-05-07T06:33:36.323Z,9.61
2023-05-07T06:36:08.896Z,9.70
2023-05-07T06:38:40.877Z,9.74
2023-05-07T06:41:12.721Z,9.76
2023-05-07T06:43:46.010Z,9.81
2023-05-07T06:46:34.870Z,9.91
2023-05-07T06:49:08.509Z,10.00
2023-05-07T06:51:40.374Z,10.10
2023-05-07T06:54:12.042Z,10.14
2023-05-07T06:56:43.966Z,10.23
2023-05-07T06:59:15.892Z,10.35
2023-05-07T07:01:48.207Z,10.49
2023-05-07T07:04:19.904Z,10.58
2023-05-07T07:06:55.569Z,10.62
2023-05-07T07:09:27.807Z,10.72
2023-05-07T07:12:00.136Z,10.77
2023-05-07T07:14:32.361Z,10.80
2023-05-07T07:17:03.990Z,10.80
2023-05-07T07:19:36.185Z,10.87
2023-05-07T07:22:08.100Z,10.96
2023-05-07T07:24:40.691Z,11.02
2023-05-07T07:27:13.523Z,11.08
2023-05-07T07:29:45.192Z,11.12
2023-05-07T07:32:17.000Z,11.14
2023-05-07T07:34:49.005Z,11.22
2023-05-07T07:37:20.746Z,11.24
2023-05-07T07:39:52.427Z,11.25
2023-05-07T07:42:24.383Z,11.27
2023-05-07T07:44:56.351Z,11.36
2023-05-07T07:47:28.110Z,11.48
2023-05-07T07:50:00.188Z,11.53
2023-05-07T07:52:32.694Z,11.56
2023-05-07T07:55:04.555Z,11.62
2023-05-07T07:57:36.311Z,11.63
2023-05-07T08:00:14.730Z,11.62
2023-05-07T08:02:48.523Z,11.57
2023-05-07T08:05:22.231Z,11.58
2023-05-07T08:07:54.387Z,11.56
2023-05-07T08:10:28.306Z,11.52
2023-05-07T08:13:01.755Z,11.57
2023-05-07T08:15:34.900Z,11.62
2023-05-07T08:18:07.673Z,11.62
2023-05-07T08:20:41.091Z,11.64
2023-05-07T08:23:15.024Z,11.64
2023-05-07T08:25:47.542Z,11.68
2023-05-07T08:28:20.857Z,11.74
2023-05-07T08:30:53.004Z,11.74
2023-05-07T08:33:24.789Z,11.75
2023-05-07T08:35:56.561Z,11.68
2023-05-07T08:38:28.498Z,11.63
2023-05-07T08:41:00.673Z,11.66
2023-05-07T08:43:34.088Z,11.74
2023-05-07T08:46:09.520Z,11.81
2023-05-07T08:48:41.074Z,11.83
2023-05-07T08:51:15.348Z,11.84
2023-05-07T08:53:49.374Z,11.90
2023-05-07T08:56:22.907Z,12.03
2023-05-07T08:58:59.936Z,12.12
2023-05-07T09:01:32.973Z,12.17
2023-05-07T09:04:05.441Z,12.08
2023-05-07T09:06:40.500Z,11.98
2023-05-07T09:09:16.181Z,11.97
2023-05-07T09:11:48.083Z,11.96
2023-05-07T09:14:23.494Z,11.96
2023-05-07T09:16:55.797Z,11.94
2023-05-07T09:19:28.238Z,11.90
2023-05-07T09:22:05.897Z,11.94
2023-05-07T09:24:39.755Z,11.97
2023-05-07T09:27:14.468Z,11.99
2023-05-07T09:29:47.202Z,12.08
2023-05-07T09:32:19.798Z,12.12
2023-05-07T09:34:52.047Z,12.12
2023-05-07T09:37:26.243Z,12.10
2023-05-07T09:39:58.140Z,12.13
2023-05-07T09:42:31.007Z,12.15
2023-05-07T09:45:04.368Z,12.11
2023-05-07T09:47:41.501Z,12.10
2023-05-07T09:50:13.442Z,12.06
2023-05-07T09:52:45.536Z,12.11
2023-05-07T09:55:17.292Z,12.17
2023-05-07T09:57:52.928Z,12.21
2023-05-07T10:00:25.386Z,12.24
2023-05-07T10:02:59.641Z,12.20
2023-05-07T10:05:33.291Z,12.12
2023-05-07T10:08:05.568Z,12.08
2023-05-07T10:10:39.522Z,12.07
2023-05-07T10:13:12.644Z,12.10
2023-05-07T10:15:45.958Z,12.14
2023-05-07T10:18:18.021Z,12.24
2023-05-07T10:20:51.399Z,12.36
2023-05-07T10:23:25.514Z,12.45
2023-05-07T10:26:01.031Z,12.57
2023-05-07T10:28:36.570Z,12.71
2023-05-07T10:31:12.024Z,12.84
2023-05-07T10:33:45.477Z,12.96
2023-05-07T10:36:18.014Z,13.00
2023-05-07T10:38:49.718Z,12.98
2023-05-07T10:41:22.166Z,13.09
2023-05-07T10:43:54.184Z,13.23
2023-05-07T10:46:28.147Z,13.33
2023-05-07T10:49:06.271Z,13.26
2023-05-07T10:51:42.428Z,13.20
2023-05-07T10:54:21.715Z,13.13
2023-05-07T10:56:55.142Z,13.00
2023-05-07T10:59:33.090Z,12.90
2023-05-07T11:02:08.417Z,12.87
2023-05-07T11:04:48.084Z,12.93
2023-05-07T11:07:28.985Z,13.04
2023-05-07T11:10:10.070Z,13.09
2023-05-07T11:12:46.828Z,13.17
2023-05-07T11:15:25.924Z,13.24
2023-05-07T11:17:58.912Z,13.26
2023-05-07T11:20:53.215Z,13.23
2023-05-07T11:23:39.509Z,13.22
2023-05-07T11:26:18.807Z,13.16
2023-05-07T11:28:50.478Z,13.14
2023-05-07T11:31:28.271Z,13.07
2023-05-07T11:34:00.366Z,12.99
2023-05-07T11:36:33.778Z,12.92
2023-05-07T11:39:08.339Z,12.88
2023-05-07T11:41:40.177Z,12.81
2023-05-07T11:44:11.758Z,12.80
2023-05-07T11:46:45.933Z,12.81
2023-05-07T11:49:17.787Z,12.85
2023-05-07T11:51:49.417Z,12.92
2023-05-07T11:54:22.457Z,13.01
2023-05-07T11:56:54.574Z,13.09
2023-05-07T11:59:26.214Z,13.16
2023-05-07T12:02:03.572Z,13.19
2023-05-07T12:04:36.154Z,13.20
2023-05-07T12:07:08.239Z,13.23
2023-05-07T12:09:40.140Z,13.24
2023-05-07T12:12:11.840Z,13.24
2023-05-07T12:14:44.308Z,13.20
2023-05-07T12:17:17.305Z,13.18
2023-05-07T12:19:49.366Z,13.19
2023-05-07T12:22:21.355Z,13.19
2023-05-07T12:25:00.837Z,13.21
2023-05-07T12:27:32.935Z,13.26
2023-05-07T12:30:04.889Z,13.29
2023-05-07T12:32:38.175Z,13.31
2023-05-07T12:35:10.602Z,13.36
2023-05-07T12:37:43.126Z,13.35
2023-05-07T12:40:15.578Z,13.33
2023-05-07T12:42:47.569Z,13.36
2023-05-07T12:45:19.489Z,13.39
2023-05-07T12:47:51.863Z,13.36
2023-05-07T12:50:23.916Z,13.37
2023-05-07T12:52:58.555Z,13.35
2023-05-07T12:55:34.873Z,13.35
2023-05-07T12:58:04.465Z,13.31
2023-05-07T13:00:40.779Z,13.23
2023-05-07T13:03:13.269Z,13.18
2023-05-07T13:05:44.948Z,13.14
2023-05-07T13:08:27.984Z,13.09
2023-05-07T13:11:03.506Z,13.10
2023-05-07T13:13:36.509Z,13.10
2023-05-07T13:16:10.553Z,13.09
2023-05-07T13:18:44.094Z,13.05
2023-05-07T13:21:15.807Z,13.03
2023-05-07T13:23:47.873Z,12.99
2023-05-07T13:28:53.100Z,12.93
2023-05-07T13:31:24.774Z,12.90
2023-05-07T13:33:57.523Z,12.84
2023-05-07T13:36:29.570Z,12.77
2023-05-07T13:39:01.615Z,12.76
2023-05-07T13:41:33.437Z,12.74
2023-05-07T13:44:05.356Z,12.73
2023-05-07T13:46:37.435Z,12.74
2023-05-07T13:49:09.277Z,12.75
2023-05-07T13:51:40.930Z,12.74
2023-05-07T13:54:12.963Z,12.70
2023-05-07T13:56:44.871Z,12.69
2023-05-07T13:59:16.606Z,12.69
2023-05-07T14:01:49.060Z,12.70
2023-05-07T14:04:21.692Z,12.68
2023-05-07T14:06:53.937Z,12.68
2023-05-07T14:09:25.595Z,12.69
2023-05-07T14:11:57.217Z,12.70
2023-05-07T14:14:28.921Z,12.69
2023-05-07T14:17:00.740Z,12.68
2023-05-07T14:19:33.148Z,12.65
2023-05-07T14:22:04.892Z,12.68
2023-05-07T14:24:38.732Z,12.69
2023-05-07T14:27:10.237Z,12.68
2023-05-07T14:29:42.183Z,12.66
2023-05-07T14:32:14.084Z,12.63
2023-05-07T14:34:46.248Z,12.62
2023-05-07T14:37:20.007Z,12.61
2023-05-07T14:39:51.768Z,12.60
2023-05-07T14:42:23.474Z,12.58
2023-05-07T14:44:55.319Z,12.56
2023-05-07T14:47:26.868Z,12.55
2023-05-07T14:49:59.489Z,12.54
2023-05-07T14:52:31.264Z,12.53
2023-05-07T14:55:03.459Z,12.50
2023-05-07T14:57:36.248Z,12.49
2023-05-07T15:00:09.167Z,12.49
2023-05-07T15:02:41.106Z,12.48
2023-05-07T15:05:13.173Z,12.45
2023-05-07T15:07:47.290Z,12.44
2023-05-07T15:10:19.123Z,12.44
2023-05-07T15:12:50.882Z,12.44
2023-05-07T15:15:23.004Z,12.46
2023-05-07T15:17:55.223Z,12.47
2023-05-07T15:20:27.008Z,12.48
2023-05-07T15:22:59.463Z,12.48
2023-05-07T15:25:32.183Z,12.49
2023-05-07T15:28:04.198Z,12.53
2023-05-07T15:30:36.156Z,12.56
2023-05-07T15:33:07.792Z,12.63
2023-05-07T15:35:39.567Z,12.70
2023-05-07T15:38:11.972Z,12.72
2023-05-07T15:40:43.520Z,12.79
2023-05-07T15:43:15.111Z,12.86
2023-05-07T15:45:47.222Z,13.13
2023-05-07T15:48:19.147Z,13.41
2023-05-07T15:50:50.994Z,13.50
2023-05-07T15:53:22.724Z,13.46
2023-05-07T15:55:55.289Z,13.41
2023-05-07T15:58:28.434Z,13.35
2023-05-07T16:01:01.786Z,13.28
2023-05-07T16:03:34.786Z,13.21
2023-05-07T16:06:06.779Z,13.18
2023-05-07T16:08:40.402Z,13.18
2023-05-07T16:11:12.581Z,13.18
2023-05-07T16:13:44.209Z,13.16
2023-05-07T16:16:16.073Z,13.13
2023-05-07T16:18:47.754Z,13.12
2023-05-07T16:21:20.659Z,13.09
2023-05-07T16:23:53.147Z,13.03
2023-05-07T16:26:25.396Z,12.96
2023-05-07T16:28:57.483Z,12.88
2023-05-07T16:31:29.328Z,12.81
2023-05-07T16:34:23.498Z,12.72
2023-05-07T16:36:55.303Z,12.66
2023-05-07T16:39:27.052Z,12.60
2023-05-07T16:41:58.725Z,12.53
2023-05-07T16:44:30.731Z,12.45
2023-05-07T16:47:02.450Z,12.39
2023-05-07T16:49:34.420Z,12.32
2023-05-07T16:52:07.433Z,12.26
2023-05-07T16:54:39.971Z,12.19
2023-05-07T16:57:13.432Z,12.14
2023-05-07T16:59:45.503Z,12.09
2023-05-07T17:02:17.184Z,12.06
2023-05-07T17:04:48.654Z,11.99
2023-05-07T17:07:20.866Z,11.93
2023-05-07T17:09:53.139Z,11.90
2023-05-07T17:12:26.327Z,11.87
2023-05-07T17:14:58.430Z,11.83
2023-05-07T17:17:30.490Z,11.80
2023-05-07T17:20:02.677Z,11.74
2023-05-07T17:22:34.738Z,11.68
2023-05-07T17:25:07.371Z,11.61
2023-05-07T17:27:39.377Z,11.59
2023-05-07T17:30:12.521Z,11.63
2023-05-07T17:32:45.539Z,11.65
2023-05-07T17:35:17.895Z,11.64
2023-05-07T17:37:52.054Z,11.64
2023-05-07T17:40:24.739Z,11.64
2023-05-07T17:42:59.541Z,11.60
2023-05-07T17:45:33.164Z,11.59
2023-05-07T17:48:06.262Z,11.58
2023-05-07T17:50:39.556Z,11.61
2023-05-07T17:53:12.744Z,11.58
2023-05-07T17:55:45.168Z,11.54
2023-05-07T17:58:17.444Z,11.52
2023-05-07T18:00:50.303Z,11.50
2023-05-07T18:03:24.806Z,11.49
2023-05-07T18:05:57.539Z,11.48
2023-05-07T18:08:29.502Z,11.49
2023-05-07T18:11:01.417Z,11.49
2023-05-07T18:13:33.875Z,11.47
2023-05-07T18:16:06.430Z,11.43
2023-05-07T18:18:38.220Z,11.39
2023-05-07T18:21:11.536Z,11.34
2023-05-07T18:23:43.621Z,11.34
2023-05-07T18:26:15.853Z,11.31
2023-05-07T18:28:47.707Z,11.30
2023-05-07T18:31:20.932Z,11.26
2023-05-07T18:33:54.484Z,11.27
2023-05-07T18:36:26.956Z,11.24
2023-05-07T18:39:00.343Z,11.21
2023-05-07T18:41:33.015Z,11.18
2023-05-07T18:44:05.161Z,11.16
2023-05-07T18:46:37.497Z,11.16
2023-05-07T18:49:09.480Z,11.17
2023-05-07T18:51:41.651Z,11.16
2023-05-07T18:54:13.189Z,11.15
2023-05-07T18:56:46.021Z,11.16
2023-05-07T18:59:17.699Z,11.16
2023-05-07T19:01:50.033Z,11.14
2023-05-07T19:04:21.984Z,11.12
2023-05-07T19:06:53.868Z,11.14
2023-05-07T19:09:26.337Z,11.13
2023-05-07T19:11:59.011Z,11.16
2023-05-07T19:14:30.708Z,11.14
2023-05-07T19:17:02.940Z,11.14
2023-05-07T19:19:35.247Z,11.14
2023-05-07T19:22:06.738Z,11.13
2023-05-07T19:24:39.950Z,11.11
2023-05-07T19:27:11.543Z,11.10
2023-05-07T19:29:44.136Z,11.10
2023-05-07T19:32:16.219Z,11.10
2023-05-07T19:34:47.982Z,11.08
2023-05-07T19:37:22.032Z,11.07
2023-05-07T19:39:54.278Z,11.06
2023-05-07T19:42:26.140Z,11.06
2023-05-07T19:44:58.132Z,11.03
2023-05-07T19:47:29.776Z,11.02
2023-05-07T19:50:01.647Z,11.01
2023-05-07T19:52:33.484Z,10.99
2023-05-07T19:55:05.383Z,10.97
2023-05-07T19:57:37.243Z,10.96
2023-05-07T20:00:09.901Z,10.93
2023-05-07T20:02:49.621Z,10.90
2023-05-07T20:05:21.246Z,10.86
2023-05-07T20:07:52.905Z,10.86
2023-05-07T20:10:24.561Z,10.83
2023-05-07T20:12:56.273Z,10.81
2023-05-07T20:15:28.166Z,10.78
2023-05-07T20:17:59.835Z,10.75
2023-05-07T20:20:31.700Z,10.75
2023-05-07T20:23:03.832Z,10.75
2023-05-07T20:25:35.423Z,10.76
2023-05-07T20:28:07.146Z,10.74
2023-05-07T20:30:38.788Z,10.73
2023-05-07T20:33:11.147Z,10.71
2023-05-07T20:35:42.783Z,10.67
2023-05-07T20:38:14.568Z,10.63
2023-05-07T20:40:46.209Z,10.62
2023-05-07T20:43:19.422Z,10.61
2023-05-07T20:45:52.656Z,10.59
2023-05-07T20:48:25.351Z,10.59
2023-05-07T20:50:58.818Z,10.57
2023-05-07T20:53:31.284Z,10.56
2023-05-07T20:56:02.815Z,10.56
2023-05-07T20:58:34.546Z,10.56
2023-05-07T21:01:06.657Z,10.55
2023-05-07T21:03:38.600Z,10.51
2023-05-07T21:06:10.274Z,10.48
2023-05-07T21:08:42.160Z,10.46
2023-05-07T21:11:13.873Z,10.43
2023-05-07T21:13:45.813Z,10.44
2023-05-07T21:16:17.453Z,10.43
2023-05-07T21:18:49.599Z,10.42
2023-05-07T21:21:21.183Z,10.43
2023-05-07T21:23:53.550Z,10.40
2023-05-07T21:26:25.372Z,10.39
2023-05-07T21:28:57.299Z,10.36
2023-05-07T21:31:29.123Z,10.34
2023-05-07T21:34:00.949Z,10.32
2023-05-07T21:36:32.622Z,10.30
2023-05-07T21:39:04.862Z,10.26
2023-05-07T21:41:37.049Z,10.24
2023-05-07T21:44:08.708Z,10.20
2023-05-07T21:46:41.326Z,10.16
2023-05-07T21:49:12.918Z,10.12
2023-05-07T21:51:44.675Z,10.10
2023-05-07T21:54:16.276Z,10.08
2023-05-07T21:56:49.915Z,10.05
2023-05-07T21:59:21.001Z,10.02
2023-05-07T22:01:53.181Z,10.01
2023-05-07T22:04:25.042Z,10.00
2023-05-07T22:06:56.781Z,9.98
2023-05-07T22:09:28.437Z,9.96
2023-05-07T22:12:00.281Z,9.93
2023-05-07T22:14:32.392Z,9.91
2023-05-07T22:17:04.173Z,9.90
2023-05-07T22:19:37.348Z,9.89
2023-05-07T22:22:09.186Z,9.87
2023-05-07T22:24:40.926Z,9.85
2023-05-07T22:27:12.775Z,9.84
2023-05-07T22:29:44.473Z,9.85
2023-05-07T22:32:16.232Z,9.83
2023-05-07T22:34:48.079Z,9.83
2023-05-07T22:37:19.697Z,9.84
2023-05-07T22:39:51.243Z,9.85
2023-05-07T22:42:22.836Z,9.83
2023-05-07T22:44:54.873Z,9.83
2023-05-07T22:47:26.638Z,9.80
2023-05-07T22:49:58.204Z,9.78
2023-05-07T22:52:29.808Z,9.77
2023-05-07T22:55:01.554Z,9.73
2023-05-07T22:57:33.400Z,9.73
2023-05-07T23:00:06.345Z,9.72
2023-05-07T23:02:38.542Z,9.70
2023-05-07T23:05:10.718Z,9.69
2023-05-07T23:07:42.678Z,9.67
2023-05-07T23:10:14.660Z,9.65
2023-05-07T23:12:48.194Z,9.63
2023-05-07T23:15:20.172Z,9.65
2023-05-07T23:17:52.525Z,9.64
2023-05-07T23:20:24.425Z,9.61
2023-05-07T23:22:56.959Z,9.61
2023-05-07T23:25:29.841Z,9.60
2023-05-07T23:28:01.537Z,9.59
2023-05-07T23:30:34.738Z,9.57
2023-05-07T23:33:06.492Z,9.58
2023-05-07T23:35:38.325Z,9.56
2023-05-07T23:38:10.127Z,9.55
2023-05-07T23:40:42.178Z,9.54
2023-05-07T23:43:14.135Z,9.54
2023-05-07T23:45:45.913Z,9.52
2023-05-07T23:48:17.745Z,9.52
2023-05-07T23:50:49.638Z,9.52
2023-05-07T23:53:21.726Z,9.52
2023-05-07T23:55:53.268Z,9.52
2023-05-07T23:58:24.986Z,9.48
